Time;durP1;ratioP1;P1;durP2;ratioP2;P2;SDS_P1;SDS_P2;PMS_P1;PMS_P2;Temp;Humidity;BMP_temperature;BMP_pressure;BME280_temperature;BME280_humidity;BME280_pressure;Samples;Min_cycle;Max_cycle;Signal;HPM_P1;HPM_P2
2022/10/10 00:00:33;;;;;;;5.30;1.80;;;9.20;99.90;;;;;;4988243;28;20205;-62
2022/10/10 00:03:00;;;;;;;5.80;1.80;;;9.10;99.90;;;;;;5002108;28;20206;-61
2022/10/10 00:05:27;;;;;;;3.05;2.00;;;9.10;99.90;;;;;;4968365;28;20672;-62
2022/10/10 00:07:53;;;;;;;2.25;1.55;;;9.10;99.90;;;;;;4997626;28;20241;-61
2022/10/10 00:10:20;;;;;;;3.75;1.80;;;9.10;99.90;;;;;;4985699;28;20207;-61
2022/10/10 00:12:47;;;;;;;6.72;2.28;;;9.00;99.90;;;;;;4983397;28;20233;-61
2022/10/10 00:15:15;;;;;;;3.47;1.80;;;9.00;99.90;;;;;;4985594;28;20212;-62
2022/10/10 00:17:44;;;;;;;2.80;1.77;;;8.90;99.90;;;;;;5006832;28;20233;-62
2022/10/10 00:20:12;;;;;;;3.92;1.85;;;8.80;99.90;;;;;;4966835;28;20234;-61
2022/10/10 00:22:39;;;;;;;4.27;1.77;;;8.70;99.90;;;;;;5002197;28;20199;-62
2022/10/10 00:25:07;;;;;;;2.83;1.92;;;8.70;99.90;;;;;;4975747;28;20206;-61
2022/10/10 00:27:35;;;;;;;2.80;1.80;;;8.70;99.90;;;;;;4985455;28;20237;-62
2022/10/10 00:30:02;;;;;;;3.85;2.00;;;8.70;99.90;;;;;;4992467;28;20209;-62
2022/10/10 00:32:29;;;;;;;3.53;1.77;;;8.70;99.90;;;;;;4982075;28;20210;-61
2022/10/10 00:34:57;;;;;;;3.33;1.90;;;8.60;99.90;;;;;;4997078;28;21802;-61
2022/10/10 00:37:24;;;;;;;3.45;1.70;;;8.60;99.90;;;;;;4974057;28;20797;-61
2022/10/10 00:39:51;;;;;;;3.55;1.75;;;8.60;99.90;;;;;;4988169;28;20206;-61
2022/10/10 00:42:18;;;;;;;6.97;2.13;;;8.50;99.90;;;;;;4967613;28;20762;-62
2022/10/10 00:44:47;;;;;;;3.50;1.83;;;8.50;99.90;;;;;;4984226;28;23107;-61
2022/10/10 00:47:14;;;;;;;4.60;1.80;;;8.50;99.90;;;;;;4970784;28;21646;-61
2022/10/10 00:49:43;;;;;;;5.20;1.80;;;8.50;99.90;;;;;;4984130;28;20202;-62
2022/10/10 00:52:12;;;;;;;6.63;1.77;;;8.50;99.90;;;;;;4958124;28;20203;-62
2022/10/10 00:54:39;;;;;;;3.40;1.83;;;8.50;99.90;;;;;;4971720;28;20206;-61
2022/10/10 00:57:09;;;;;;;5.33;2.13;;;8.50;99.90;;;;;;4973121;28;20201;-61
2022/10/10 00:59:39;;;;;;;4.13;1.87;;;8.40;99.90;;;;;;4974425;28;20210;-61
2022/10/10 01:02:07;;;;;;;3.83;2.17;;;8.40;99.90;;;;;;4975356;28;20909;-61
2022/10/10 01:04:37;;;;;;;4.27;2.00;;;8.40;99.90;;;;;;4992998;28;20201;-61
2022/10/10 01:07:06;;;;;;;5.60;1.83;;;8.40;99.90;;;;;;4974961;28;20202;-62
2022/10/10 01:09:36;;;;;;;4.30;2.20;;;8.30;99.90;;;;;;4962823;28;20226;-61
2022/10/10 01:12:15;;;;;;;4.60;1.93;;;8.30;99.90;;;;;;4987938;28;20574;-61
2022/10/10 01:14:48;;;;;;;3.67;2.13;;;8.40;99.90;;;;;;4968754;28;20780;-61
2022/10/10 01:17:22;;;;;;;9.43;1.73;;;8.40;99.90;;;;;;4988402;28;20202;-61
2022/10/10 01:20:22;;;;;;;4.07;1.60;;;8.40;99.90;;;;;;4992792;28;20226;-61
2022/10/10 01:23:02;;;;;;;12.10;2.17;;;8.40;99.90;;;;;;4963411;28;20213;-62
2022/10/10 01:25:36;;;;;;;4.70;2.17;;;8.40;99.90;;;;;;4989043;28;20228;-61
2022/10/10 01:28:11;;;;;;;5.53;2.03;;;8.40;99.90;;;;;;4987179;28;20717;-61
2022/10/10 01:30:41;;;;;;;3.60;1.90;;;8.40;99.90;;;;;;4977948;28;20207;-61
2022/10/10 01:33:13;;;;;;;2.33;1.67;;;8.30;99.90;;;;;;4980134;28;20206;-61
2022/10/10 01:35:49;;;;;;;3.40;1.70;;;8.30;99.90;;;;;;4991651;28;20198;-61
2022/10/10 01:38:25;;;;;;;2.33;2.13;;;8.30;99.90;;;;;;4963564;28;20318;-61
2022/10/10 01:40:56;;;;;;;4.07;1.93;;;8.30;99.90;;;;;;4984694;28;20202;-61
2022/10/10 01:43:25;;;;;;;5.63;2.03;;;8.30;99.90;;;;;;4997605;28;20198;-61
2022/10/10 01:45:54;;;;;;;4.47;1.90;;;8.40;99.90;;;;;;4979137;28;20355;-61
2022/10/10 01:48:30;;;;;;;4.87;1.90;;;8.40;99.90;;;;;;4988447;28;20824;-61
2022/10/10 01:51:17;;;;;;;3.03;1.67;;;8.40;99.90;;;;;;5003250;28;20201;-62
2022/10/10 01:53:52;;;;;;;4.13;1.90;;;8.40;99.90;;;;;;4954227;28;21799;-61
2022/10/10 01:56:31;;;;;;;3.20;1.80;;;8.40;99.90;;;;;;4990142;28;20205;-62
2022/10/10 01:59:11;;;;;;;2.90;1.83;;;8.40;99.90;;;;;;5003993;28;20216;-61
2022/10/10 02:01:47;;;;;;;4.80;2.03;;;8.40;99.90;;;;;;4971557;28;20231;-61
2022/10/10 02:04:20;;;;;;;5.03;1.83;;;8.50;99.90;;;;;;4992488;28;20201;-61
2022/10/10 02:06:52;;;;;;;4.13;1.90;;;8.50;99.90;;;;;;4999196;28;20253;-61
2022/10/10 02:09:26;;;;;;;2.93;1.73;;;8.40;99.90;;;;;;4986800;28;20862;-62
2022/10/10 02:11:54;;;;;;;3.57;1.73;;;8.40;99.90;;;;;;4975404;28;20205;-62
2022/10/10 02:14:24;;;;;;;3.53;1.80;;;8.40;99.90;;;;;;4996367;28;20206;-61
2022/10/10 02:16:55;;;;;;;6.47;1.87;;;8.40;99.90;;;;;;4987273;28;20269;-61
2022/10/10 02:19:24;;;;;;;1.77;1.60;;;8.50;99.90;;;;;;4999416;28;20839;-61
2022/10/10 02:21:53;;;;;;;2.90;1.70;;;8.50;99.90;;;;;;4996124;28;20221;-61
2022/10/10 02:24:22;;;;;;;7.35;1.98;;;8.50;99.90;;;;;;4995708;28;21766;-61
2022/10/10 02:26:55;;;;;;;2.30;1.70;;;8.40;99.90;;;;;;4988431;28;20267;-61
2022/10/10 02:29:27;;;;;;;4.00;1.83;;;8.40;99.90;;;;;;4990979;28;20252;-62
2022/10/10 02:32:03;;;;;;;3.03;1.90;;;8.40;99.90;;;;;;4977551;28;22478;-61
2022/10/10 02:34:34;;;;;;;4.17;1.80;;;8.40;99.90;;;;;;4983948;28;20209;-62
2022/10/10 02:37:04;;;;;;;3.43;1.80;;;8.40;99.90;;;;;;4993409;28;20210;-61
2022/10/10 02:39:35;;;;;;;3.00;1.63;;;8.40;99.90;;;;;;4987650;28;20211;-61
2022/10/10 02:42:04;;;;;;;3.37;1.50;;;8.40;99.90;;;;;;4970178;28;20218;-61
2022/10/10 02:44:32;;;;;;;3.23;1.60;;;8.30;99.90;;;;;;4981799;28;20207;-61
2022/10/10 02:47:00;;;;;;;3.23;2.20;;;8.40;99.90;;;;;;4985149;28;20233;-61
2022/10/10 02:49:28;;;;;;;3.83;1.70;;;8.30;99.90;;;;;;4995499;28;20221;-61
2022/10/10 02:51:55;;;;;;;4.03;2.07;;;8.50;99.90;;;;;;4990692;28;20986;-61
2022/10/10 02:54:22;;;;;;;2.07;1.77;;;8.30;99.90;;;;;;5006626;28;20208;-61
2022/10/10 02:56:49;;;;;;;2.80;1.70;;;8.30;99.90;;;;;;4970842;28;20210;-61
2022/10/10 02:59:16;;;;;;;6.20;2.10;;;8.30;99.90;;;;;;5005173;28;20682;-61
2022/10/10 03:01:43;;;;;;;2.07;1.67;;;8.30;99.90;;;;;;4984835;28;20222;-61
2022/10/10 03:04:11;;;;;;;4.53;1.80;;;8.30;99.90;;;;;;4974523;28;21402;-61
2022/10/10 03:06:38;;;;;;;1.77;1.60;;;8.30;99.90;;;;;;4979109;28;20202;-61
2022/10/10 03:09:06;;;;;;;1.60;1.50;;;8.30;99.90;;;;;;4996429;28;20226;-61
2022/10/10 03:11:33;;;;;;;3.73;2.17;;;8.20;99.90;;;;;;4987682;28;20202;-61
2022/10/10 03:13:59;;;;;;;3.93;1.80;;;8.20;99.90;;;;;;4976324;28;20210;-61
2022/10/10 03:16:26;;;;;;;3.75;2.00;;;8.20;99.90;;;;;;4987156;28;20679;-61
2022/10/10 03:18:53;;;;;;;4.57;1.70;;;8.20;99.90;;;;;;4987438;28;21169;-62
2022/10/10 03:21:21;;;;;;;3.67;2.17;;;8.10;99.90;;;;;;4985162;28;20206;-61
2022/10/10 03:23:48;;;;;;;2.97;1.80;;;8.10;99.90;;;;;;4973932;28;20526;-61
2022/10/10 03:26:15;;;;;;;4.87;2.10;;;8.20;99.90;;;;;;4979665;28;20213;-61
2022/10/10 03:28:42;;;;;;;5.43;2.00;;;8.10;99.90;;;;;;4965875;28;20234;-61
2022/10/10 03:31:08;;;;;;;3.20;1.83;;;8.10;99.90;;;;;;4973166;28;20637;-62
2022/10/10 03:33:35;;;;;;;5.27;2.27;;;8.10;99.90;;;;;;4987633;28;20205;-61
2022/10/10 03:36:03;;;;;;;3.27;1.87;;;8.10;99.90;;;;;;4963898;28;20209;-61
2022/10/10 03:38:31;;;;;;;4.77;2.17;;;8.10;99.90;;;;;;4979746;28;20214;-61
2022/10/10 03:40:57;;;;;;;2.67;1.73;;;8.10;99.90;;;;;;4969639;28;20202;-61
2022/10/10 03:43:25;;;;;;;5.37;2.17;;;8.10;99.90;;;;;;4976328;28;20194;-61
2022/10/10 03:45:52;;;;;;;6.40;2.13;;;8.10;99.90;;;;;;4968827;28;20445;-61
2022/10/10 03:48:18;;;;;;;2.63;1.83;;;8.10;99.90;;;;;;4978283;28;20232;-61
2022/10/10 03:50:45;;;;;;;4.77;2.37;;;8.20;99.90;;;;;;4955296;28;21063;-61
2022/10/10 03:53:12;;;;;;;7.67;2.17;;;8.10;99.90;;;;;;4987421;28;20221;-61
2022/10/10 03:55:41;;;;;;;3.70;2.07;;;8.10;99.90;;;;;;4947613;28;20851;-63
2022/10/10 03:58:08;;;;;;;4.00;1.93;;;8.10;99.90;;;;;;4991114;28;20212;-61
2022/10/10 04:00:35;;;;;;;5.40;2.10;;;8.10;99.90;;;;;;4965203;28;20233;-61
2022/10/10 04:03:05;;;;;;;10.93;2.37;;;8.10;99.90;;;;;;4979850;28;20233;-61
2022/10/10 04:05:33;;;;;;;9.40;2.10;;;8.20;99.90;;;;;;4982531;28;20312;-61
2022/10/10 04:08:00;;;;;;;10.97;2.23;;;8.10;99.90;;;;;;4963008;28;20315;-61
2022/10/10 04:10:27;;;;;;;2.10;1.90;;;8.10;99.90;;;;;;4977345;28;20355;-61
2022/10/10 04:12:55;;;;;;;2.70;2.10;;;8.20;99.90;;;;;;4980056;28;20202;-61
2022/10/10 04:15:22;;;;;;;3.97;2.37;;;8.20;99.90;;;;;;4959821;28;20316;-61
2022/10/10 04:17:48;;;;;;;3.27;1.90;;;8.20;99.90;;;;;;4977954;28;21387;-62
2022/10/10 04:20:16;;;;;;;3.13;2.10;;;8.20;99.90;;;;;;4976142;28;20226;-61
2022/10/10 04:22:43;;;;;;;3.90;1.93;;;8.10;99.90;;;;;;4979129;28;20214;-61
2022/10/10 04:25:10;;;;;;;2.80;1.93;;;8.20;99.90;;;;;;4996736;28;20202;-61
2022/10/10 04:27:37;;;;;;;6.87;2.00;;;8.20;99.90;;;;;;4972910;28;20206;-61
2022/10/10 04:30:07;;;;;;;4.17;2.30;;;8.20;99.90;;;;;;4988232;28;20263;-62
2022/10/10 04:32:34;;;;;;;4.87;2.03;;;8.20;99.90;;;;;;4981007;28;20263;-61
2022/10/10 04:35:01;;;;;;;3.20;1.93;;;8.20;99.90;;;;;;5002722;28;20213;-61
2022/10/10 04:37:28;;;;;;;6.40;2.00;;;8.10;99.90;;;;;;4962794;28;20241;-61
2022/10/10 04:39:55;;;;;;;4.77;2.73;;;8.10;99.90;;;;;;4977074;28;20668;-61
2022/10/10 04:42:22;;;;;;;7.20;2.23;;;8.10;99.90;;;;;;4967150;28;20235;-62
2022/10/10 04:44:49;;;;;;;3.90;2.30;;;8.10;99.90;;;;;;4971016;28;20288;-61
2022/10/10 04:47:17;;;;;;;3.30;2.10;;;8.10;99.90;;;;;;4951607;28;20237;-61
2022/10/10 04:49:44;;;;;;;5.23;2.33;;;8.00;99.90;;;;;;4952563;28;20421;-62
2022/10/10 04:52:12;;;;;;;5.93;2.17;;;8.00;99.90;;;;;;4989027;28;20198;-61
2022/10/10 04:54:39;;;;;;;3.27;2.20;;;8.10;99.90;;;;;;4966560;28;20523;-61
2022/10/10 04:57:06;;;;;;;5.33;2.40;;;8.10;99.90;;;;;;4989666;28;20290;-61
2022/10/10 04:59:33;;;;;;;5.00;2.23;;;8.10;99.90;;;;;;4953998;28;20619;-61
2022/10/10 05:02:00;;;;;;;5.10;2.40;;;8.10;99.90;;;;;;4946794;28;20664;-61
2022/10/10 05:04:28;;;;;;;6.63;1.97;;;8.10;99.90;;;;;;4980171;28;20225;-61
2022/10/10 05:06:55;;;;;;;5.23;2.57;;;8.00;99.90;;;;;;4990309;28;20727;-62
2022/10/10 05:09:21;;;;;;;2.80;2.00;;;8.00;99.90;;;;;;4984810;28;20230;-61
2022/10/10 05:11:48;;;;;;;6.73;1.90;;;8.00;99.90;;;;;;4992691;28;20209;-61
2022/10/10 05:14:15;;;;;;;4.60;2.17;;;8.00;99.90;;;;;;4992070;28;20237;-61
2022/10/10 05:16:42;;;;;;;5.93;2.00;;;8.00;99.90;;;;;;4967497;28;20234;-61
2022/10/10 05:19:08;;;;;;;4.37;2.13;;;8.00;99.90;;;;;;4991384;28;20213;-61
2022/10/10 05:21:36;;;;;;;4.40;2.13;;;7.90;99.90;;;;;;4998586;28;20895;-61
2022/10/10 05:24:04;;;;;;;6.17;2.13;;;7.90;99.90;;;;;;4996279;28;20205;-62
2022/10/10 05:26:33;;;;;;;2.40;1.80;;;7.90;99.90;;;;;;5001311;28;20297;-61
2022/10/10 05:29:00;;;;;;;2.83;2.03;;;8.00;99.90;;;;;;4989008;28;20222;-61
2022/10/10 05:31:27;;;;;;;8.13;2.37;;;8.00;99.90;;;;;;4992173;28;20821;-61
2022/10/10 05:33:54;;;;;;;5.90;2.10;;;8.00;99.90;;;;;;4973271;28;20218;-61
2022/10/10 05:36:21;;;;;;;4.77;2.20;;;8.00;99.90;;;;;;4985231;28;20230;-61
2022/10/10 05:38:49;;;;;;;7.97;2.40;;;8.00;99.90;;;;;;5008355;28;20561;-61
2022/10/10 05:41:16;;;;;;;3.20;2.10;;;7.90;99.90;;;;;;4990091;28;20325;-61
2022/10/10 05:43:43;;;;;;;5.97;2.00;;;8.00;99.90;;;;;;5004318;28;20671;-61
2022/10/10 05:46:10;;;;;;;3.53;1.87;;;8.00;99.90;;;;;;4978480;28;20221;-62
2022/10/10 05:48:36;;;;;;;5.83;2.73;;;8.00;99.90;;;;;;4958611;28;21077;-61
2022/10/10 05:51:03;;;;;;;5.63;2.83;;;8.10;99.90;;;;;;4993821;28;20428;-61
2022/10/10 05:53:30;;;;;;;2.60;2.00;;;8.00;99.90;;;;;;4985366;28;20208;-61
2022/10/10 05:56:00;;;;;;;8.00;2.37;;;8.00;99.90;;;;;;4981859;28;20225;-61
2022/10/10 05:58:27;;;;;;;7.07;2.50;;;8.00;99.90;;;;;;4985943;28;20206;-62
2022/10/10 06:00:54;;;;;;;8.33;2.17;;;7.90;99.90;;;;;;4990778;28;20213;-61
2022/10/10 06:03:21;;;;;;;7.03;2.50;;;7.90;99.90;;;;;;4967641;28;20214;-62
2022/10/10 06:05:51;;;;;;;5.17;2.70;;;8.00;99.90;;;;;;4974768;28;20209;-61
2022/10/10 06:08:17;;;;;;;3.13;2.03;;;8.00;99.90;;;;;;5005895;28;20209;-61
2022/10/10 06:10:46;;;;;;;4.17;2.23;;;7.90;99.90;;;;;;4975153;28;20789;-61
2022/10/10 06:13:17;;;;;;;2.63;2.10;;;8.20;99.90;;;;;;4990679;28;20202;-61
2022/10/10 06:15:44;;;;;;;7.37;2.53;;;8.00;99.90;;;;;;4990339;28;20582;-61
2022/10/10 06:18:11;;;;;;;4.50;2.43;;;7.90;99.90;;;;;;4989361;28;20237;-59
2022/10/10 06:20:40;;;;;;;2.17;1.93;;;7.90;99.90;;;;;;4972592;28;20595;-61
2022/10/10 06:23:08;;;;;;;7.23;2.37;;;8.00;99.90;;;;;;4989396;28;20696;-62
2022/10/10 06:25:36;;;;;;;5.37;2.47;;;8.00;99.90;;;;;;5003672;28;20206;-61
2022/10/10 06:28:03;;;;;;;3.47;2.07;;;8.00;99.90;;;;;;4985834;28;20213;-61
2022/10/10 06:30:33;;;;;;;3.43;1.77;;;8.00;99.90;;;;;;4985169;28;20486;-61
2022/10/10 06:33:00;;;;;;;3.17;2.27;;;8.00;99.90;;;;;;4989474;28;20198;-61
2022/10/10 06:35:27;;;;;;;3.83;2.27;;;8.10;99.90;;;;;;4969284;28;20213;-61
2022/10/10 06:37:53;;;;;;;7.33;2.20;;;8.20;99.90;;;;;;4991860;28;20633;-62
2022/10/10 06:40:20;;;;;;;4.60;2.37;;;8.20;99.90;;;;;;4979144;28;20213;-61
2022/10/10 06:42:47;;;;;;;4.23;2.40;;;8.20;99.90;;;;;;4976568;28;20296;-61
2022/10/10 06:45:14;;;;;;;2.33;1.90;;;8.20;99.90;;;;;;4984541;28;20217;-62
2022/10/10 06:47:42;;;;;;;7.87;2.50;;;8.30;99.90;;;;;;4997892;28;20248;-61
2022/10/10 06:50:10;;;;;;;2.67;2.03;;;8.30;99.90;;;;;;4984720;28;22443;-62
2022/10/10 06:52:36;;;;;;;6.43;2.33;;;8.30;99.90;;;;;;5010386;28;20208;-61
2022/10/10 06:55:04;;;;;;;2.70;1.90;;;8.40;99.90;;;;;;4998736;28;20407;-62
2022/10/10 06:57:30;;;;;;;2.87;2.03;;;8.40;99.90;;;;;;4997055;28;20228;-61
2022/10/10 06:59:57;;;;;;;6.67;2.30;;;8.50;99.90;;;;;;4991109;28;20935;-61
2022/10/10 07:02:24;;;;;;;4.93;2.30;;;8.60;99.90;;;;;;5008687;28;20208;-61
2022/10/10 07:04:52;;;;;;;4.77;2.77;;;8.60;99.90;;;;;;4997672;28;20297;-62
2022/10/10 07:07:19;;;;;;;4.47;2.33;;;8.70;99.90;;;;;;4988081;28;20218;-62
2022/10/10 07:09:46;;;;;;;3.75;2.70;;;8.80;99.90;;;;;;4997161;28;20318;-62
2022/10/10 07:12:12;;;;;;;3.58;2.17;;;8.80;99.90;;;;;;5012427;28;20995;-61
2022/10/10 07:14:39;;;;;;;2.28;1.80;;;8.80;99.90;;;;;;4993657;28;20590;-61
2022/10/10 07:17:06;;;;;;;4.47;2.63;;;8.90;99.90;;;;;;4992149;28;20309;-61
2022/10/10 07:19:33;;;;;;;4.95;2.40;;;9.00;99.90;;;;;;4993994;28;20205;-62
2022/10/10 07:22:01;;;;;;;7.72;2.28;;;9.00;99.90;;;;;;4986974;28;20498;-61
2022/10/10 07:24:28;;;;;;;3.22;2.20;;;9.10;99.90;;;;;;5010587;28;20205;-61
2022/10/10 07:26:55;;;;;;;3.20;2.25;;;9.10;99.90;;;;;;4999052;28;20533;-61
2022/10/10 07:29:21;;;;;;;3.97;2.10;;;9.20;99.90;;;;;;4997225;28;20204;-62
2022/10/10 07:31:48;;;;;;;3.97;2.10;;;9.20;99.90;;;;;;4993944;28;20665;-61
2022/10/10 07:34:15;;;;;;;3.10;2.28;;;9.30;99.90;;;;;;5011710;28;20714;-62
2022/10/10 07:36:42;;;;;;;2.22;1.98;;;9.40;99.90;;;;;;5000339;28;20213;-61
2022/10/10 07:39:10;;;;;;;4.85;2.10;;;9.40;99.90;;;;;;4977429;28;20297;-61
2022/10/10 07:41:37;;;;;;;3.88;2.20;;;9.40;99.90;;;;;;4995046;28;20209;-61
2022/10/10 07:44:04;;;;;;;3.90;2.75;;;9.50;99.90;;;;;;4996566;28;20233;-62
2022/10/10 07:46:32;;;;;;;10.85;2.30;;;9.60;99.90;;;;;;4989663;28;20454;-62
2022/10/10 07:48:59;;;;;;;7.05;2.65;;;9.60;99.90;;;;;;4996086;28;20206;-62
2022/10/10 07:51:26;;;;;;;2.60;2.10;;;9.60;99.90;;;;;;4976441;28;20254;-61
2022/10/10 07:53:53;;;;;;;4.78;2.60;;;9.70;99.90;;;;;;4964701;28;20218;-62
2022/10/10 07:56:21;;;;;;;2.83;2.50;;;9.70;99.90;;;;;;4984225;28;20378;-62
2022/10/10 07:58:48;;;;;;;3.88;2.42;;;9.70;99.90;;;;;;4978478;28;20230;-62
2022/10/10 08:01:15;;;;;;;5.03;2.88;;;9.80;99.90;;;;;;4988844;28;20194;-61
2022/10/10 08:03:41;;;;;;;3.03;2.15;;;9.80;99.90;;;;;;4997529;28;20202;-62
2022/10/10 08:06:10;;;;;;;3.80;2.80;;;9.80;99.90;;;;;;4984106;28;20199;-62
2022/10/10 08:08:38;;;;;;;5.30;3.00;;;9.90;99.90;;;;;;4967778;28;20203;-61
2022/10/10 08:11:05;;;;;;;5.47;2.58;;;9.90;99.90;;;;;;4977723;28;20645;-61
2022/10/10 08:13:34;;;;;;;2.83;2.38;;;9.90;99.90;;;;;;4980315;28;20865;-61
2022/10/10 08:16:02;;;;;;;6.40;2.88;;;10.00;99.90;;;;;;4999973;28;20209;-61
2022/10/10 08:18:29;;;;;;;2.47;2.28;;;10.00;99.90;;;;;;4989075;28;20401;-61
2022/10/10 08:20:59;;;;;;;4.00;2.35;;;10.10;99.90;;;;;;4990577;28;20206;-61
2022/10/10 08:23:26;;;;;;;3.85;2.63;;;10.10;99.90;;;;;;4998006;28;20500;-62
2022/10/10 08:25:53;;;;;;;6.82;2.65;;;10.10;99.90;;;;;;4955686;28;20210;-61
2022/10/10 08:28:20;;;;;;;4.38;2.67;;;10.20;99.90;;;;;;4995793;28;20610;-63
2022/10/10 08:30:48;;;;;;;10.23;2.72;;;10.20;99.90;;;;;;4967156;28;20234;-61
2022/10/10 08:33:15;;;;;;;5.15;2.78;;;10.30;99.90;;;;;;4980122;28;20219;-61
2022/10/10 08:35:42;;;;;;;2.88;2.30;;;10.30;99.90;;;;;;4987643;28;20711;-62
2022/10/10 08:38:08;;;;;;;3.53;2.70;;;10.40;99.90;;;;;;4969585;28;20206;-61
2022/10/10 08:40:43;;;;;;;3.63;2.60;;;10.40;99.90;;;;;;4963442;28;20214;-61
2022/10/10 08:43:16;;;;;;;4.50;2.70;;;10.50;99.90;;;;;;4993468;28;20205;-62
2022/10/10 08:45:43;;;;;;;8.77;2.88;;;10.50;99.90;;;;;;4968365;28;20226;-61
2022/10/10 08:48:15;;;;;;;4.25;2.63;;;10.50;99.90;;;;;;5000485;28;20217;-61
2022/10/10 08:50:46;;;;;;;3.92;2.95;;;10.60;99.90;;;;;;4992842;28;20644;-61
2022/10/10 08:53:20;;;;;;;4.60;2.55;;;10.70;99.90;;;;;;4998165;28;20209;-61
2022/10/10 08:55:47;;;;;;;8.65;3.50;;;10.80;99.90;;;;;;4937208;28;20222;-61
2022/10/10 08:58:19;;;;;;;2.83;2.35;;;10.80;99.90;;;;;;4998041;28;20202;-61
2022/10/10 09:00:50;;;;;;;5.68;2.75;;;10.90;99.90;;;;;;4974522;28;20791;-61
2022/10/10 09:03:26;;;;;;;4.47;3.10;;;10.90;99.90;;;;;;4999419;28;20663;-61
2022/10/10 09:06:07;;;;;;;6.38;3.10;;;11.00;99.90;;;;;;4998165;28;20233;-61
2022/10/10 09:08:43;;;;;;;7.65;2.92;;;11.10;99.90;;;;;;4976049;28;20220;-62
2022/10/10 09:11:20;;;;;;;6.47;2.80;;;11.10;99.90;;;;;;4974322;28;20221;-62
2022/10/10 09:13:58;;;;;;;7.78;3.22;;;11.20;99.90;;;;;;4987049;28;20232;-62
2022/10/10 09:16:34;;;;;;;3.13;2.70;;;11.30;99.90;;;;;;4983837;28;20944;-62
2022/10/10 09:19:15;;;;;;;6.40;2.75;;;11.40;99.90;;;;;;5002797;28;20209;-62
2022/10/10 09:21:44;;;;;;;7.03;3.10;;;11.40;99.90;;;;;;4999237;28;20933;-61
2022/10/10 09:24:16;;;;;;;6.60;3.20;;;11.50;99.90;;;;;;4979551;28;20202;-61
2022/10/10 09:26:49;;;;;;;5.68;2.80;;;11.60;99.90;;;;;;4965288;28;20714;-62
2022/10/10 09:29:27;;;;;;;6.88;3.15;;;11.70;99.90;;;;;;4992239;28;20495;-62
2022/10/10 09:31:58;;;;;;;7.05;3.05;;;11.70;99.90;;;;;;4968972;28;21074;-62
2022/10/10 09:34:33;;;;;;;4.55;3.20;;;11.80;99.90;;;;;;5000420;28;20207;-62
2022/10/10 09:37:02;;;;;;;9.07;3.33;;;11.90;99.90;;;;;;4998618;28;20574;-62
2022/10/10 09:39:36;;;;;;;4.43;3.97;;;12.00;99.90;;;;;;4977787;28;20203;-62
2022/10/10 09:42:09;;;;;;;6.65;3.53;;;12.10;99.90;;;;;;4965651;28;20426;-62
2022/10/10 09:44:37;;;;;;;5.28;3.60;;;12.20;99.90;;;;;;4989529;28;20206;-62
2022/10/10 09:47:04;;;;;;;11.38;4.38;;;12.20;99.90;;;;;;4959968;28;20429;-62
2022/10/10 09:49:34;;;;;;;6.82;3.70;;;12.30;99.90;;;;;;5002039;28;20201;-61
2022/10/10 09:52:13;;;;;;;8.25;3.65;;;12.30;99.90;;;;;;4996888;28;20241;-62
2022/10/10 09:54:41;;;;;;;5.65;3.90;;;12.30;99.90;;;;;;4978137;28;20231;-62
2022/10/10 09:57:14;;;;;;;8.45;3.58;;;12.40;99.90;;;;;;4953133;28;20355;-62
2022/10/10 09:59:43;;;;;;;4.75;3.40;;;12.40;99.90;;;;;;4982623;28;20241;-62
2022/10/10 10:02:15;;;;;;;9.10;3.97;;;12.50;99.90;;;;;;4980979;28;20306;-61
2022/10/10 10:04:44;;;;;;;6.05;4.47;;;12.40;99.90;;;;;;4992536;28;20218;-61
2022/10/10 10:07:25;;;;;;;6.85;3.88;;;12.40;99.90;;;;;;4985520;28;20423;-61
2022/10/10 10:09:54;;;;;;;5.20;3.97;;;12.50;99.90;;;;;;4979392;28;20210;-61
2022/10/10 10:12:24;;;;;;;7.10;4.20;;;12.60;99.90;;;;;;4954534;28;20681;-62
2022/10/10 10:14:57;;;;;;;6.43;4.80;;;12.60;99.90;;;;;;4953231;28;20206;-61
2022/10/10 10:17:24;;;;;;;5.20;3.72;;;12.70;99.90;;;;;;4960554;28;20256;-62
2022/10/10 10:19:52;;;;;;;10.98;5.80;;;12.70;99.90;;;;;;4970578;28;20203;-62
2022/10/10 10:22:25;;;;;;;10.35;5.63;;;13.20;99.90;;;;;;4980248;28;20210;-61
2022/10/10 10:24:52;;;;;;;9.65;5.55;;;12.80;99.90;;;;;;4977294;28;20210;-62
2022/10/10 10:27:21;;;;;;;11.07;5.00;;;12.90;99.90;;;;;;4951340;28;20226;-62
2022/10/10 10:29:49;;;;;;;10.18;5.57;;;13.00;99.90;;;;;;4980949;28;20712;-62
2022/10/10 10:32:27;;;;;;;11.10;4.93;;;13.00;99.90;;;;;;4969871;28;20265;-62
2022/10/10 10:35:16;;;;;;;7.57;4.63;;;13.00;99.90;;;;;;4977866;28;20602;-62
2022/10/10 10:38:07;;;;;;;10.07;4.80;;;13.10;99.90;;;;;;4987446;28;20222;-62
2022/10/10 10:40:39;;;;;;;9.20;4.65;;;13.20;99.90;;;;;;5001971;22;20258;-63
2022/10/10 10:43:45;;;;;;;7.68;4.25;;;13.20;99.90;;;;;;5015214;28;20200;-63
2022/10/10 10:46:24;;;;;;;7.70;3.97;;;13.30;99.90;;;;;;5040356;28;20612;-62
2022/10/10 10:49:00;;;;;;;8.63;3.63;;;13.30;99.90;;;;;;5032683;28;21071;-62
2022/10/10 10:51:46;;;;;;;5.85;3.13;;;13.40;99.90;;;;;;5049870;28;20253;-62
2022/10/10 10:54:29;;;;;;;7.18;3.63;;;13.40;99.90;;;;;;5067254;28;20234;-63
2022/10/10 10:57:01;;;;;;;5.72;3.38;;;13.50;99.90;;;;;;5051327;27;20230;-62
2022/10/10 10:59:36;;;;;;;7.85;3.35;;;13.50;99.90;;;;;;5033961;28;20239;-63
2022/10/10 11:02:31;;;;;;;9.43;3.67;;;13.60;99.90;;;;;;5057752;28;20207;-63
2022/10/10 11:05:17;;;;;;;5.80;2.88;;;13.70;99.90;;;;;;5051281;28;20199;-63
2022/10/10 11:07:54;;;;;;;7.82;3.28;;;13.70;99.90;;;;;;5070632;28;20203;-63
2022/10/10 11:10:28;;;;;;;9.77;3.58;;;13.80;99.90;;;;;;5070026;28;20220;-62
2022/10/10 11:13:05;;;;;;;6.22;3.60;;;14.10;99.90;;;;;;5046508;27;20235;-63
2022/10/10 11:15:36;;;;;;;4.78;3.10;;;13.90;99.90;;;;;;5046961;27;20572;-62
2022/10/10 11:18:11;;;;;;;5.72;3.70;;;14.00;99.90;;;;;;5065221;27;20210;-63
2022/10/10 11:20:43;;;;;;;6.05;3.25;;;14.10;99.90;;;;;;5056360;28;20203;-62
2022/10/10 11:23:15;;;;;;;4.05;3.10;;;14.10;99.90;;;;;;5048857;28;20246;-62
2022/10/10 11:25:47;;;;;;;3.85;3.35;;;14.10;99.90;;;;;;5070707;27;20219;-62
2022/10/10 11:28:20;;;;;;;7.05;4.10;;;14.20;99.90;;;;;;5040741;28;20326;-62
2022/10/10 11:30:51;;;;;;;7.43;3.80;;;14.20;99.90;;;;;;5070001;27;20253;-61
2022/10/10 11:33:23;;;;;;;6.15;3.60;;;14.20;99.90;;;;;;5050159;28;20252;-62
2022/10/10 11:35:55;;;;;;;4.63;3.10;;;14.40;99.90;;;;;;5058992;28;20200;-63
2022/10/10 11:38:30;;;;;;;6.75;3.67;;;14.40;99.90;;;;;;5056375;28;20227;-62
2022/10/10 11:41:01;;;;;;;5.10;3.10;;;14.40;99.90;;;;;;5066337;27;20434;-62
2022/10/10 11:43:39;;;;;;;7.30;3.28;;;14.40;99.90;;;;;;5058427;28;20291;-62
2022/10/10 11:46:16;;;;;;;4.25;3.33;;;14.60;99.90;;;;;;5057190;28;20230;-63
2022/10/10 11:48:48;;;;;;;6.65;3.70;;;14.60;99.90;;;;;;5046705;28;21008;-62
2022/10/10 11:51:24;;;;;;;6.00;3.83;;;14.60;99.90;;;;;;5060237;28;20247;-62
2022/10/10 11:53:56;;;;;;;6.53;3.67;;;14.60;99.90;;;;;;5060980;28;20732;-61
2022/10/10 11:56:29;;;;;;;5.93;3.63;;;14.70;99.90;;;;;;5072580;28;20211;-62
2022/10/10 11:59:01;;;;;;;10.50;3.55;;;14.70;99.90;;;;;;5057025;28;20262;-63
2022/10/10 12:01:33;;;;;;;10.35;3.63;;;14.70;99.90;;;;;;5062181;28;20222;-62
2022/10/10 12:04:00;;;;;;;7.00;3.97;;;14.70;99.90;;;;;;5042265;28;20239;-62
2022/10/10 12:06:33;;;;;;;5.57;4.00;;;14.70;99.90;;;;;;5057100;28;20215;-63
2022/10/10 12:09:07;;;;;;;6.10;3.55;;;14.70;99.90;;;;;;5058601;28;20207;-62
2022/10/10 12:11:40;;;;;;;5.03;3.28;;;14.70;99.90;;;;;;5068788;28;20253;-62
2022/10/10 12:14:09;;;;;;;8.27;4.05;;;14.70;99.90;;;;;;5043541;27;21028;-62
2022/10/10 12:16:37;;;;;;;4.82;3.92;;;14.80;99.90;;;;;;5061647;27;20254;-62
2022/10/10 12:19:07;;;;;;;9.63;3.78;;;14.70;99.90;;;;;;5049382;28;20199;-62
2022/10/10 12:21:57;;;;;;;5.55;3.40;;;14.80;99.90;;;;;;5068785;27;20203;-63
2022/10/10 12:24:26;;;;;;;11.45;3.60;;;14.80;99.90;;;;;;5063983;28;20196;-62
2022/10/10 12:27:26;;;;;;;6.53;3.70;;;14.90;99.90;;;;;;5058270;27;20214;-62
2022/10/10 12:30:29;;;;;;;5.82;3.30;;;15.00;99.90;;;;;;5071205;27;20199;-62
2022/10/10 12:32:57;;;;;;;12.85;4.20;;;15.00;99.90;;;;;;5048749;27;20248;-62
2022/10/10 12:35:33;;;;;;;3.53;2.90;;;15.00;99.90;;;;;;5074657;28;20199;-62
2022/10/10 12:38:21;;;;;;;4.50;3.13;;;15.00;99.90;;;;;;5059402;27;20219;-62
2022/10/10 12:41:14;;;;;;;5.47;2.60;;;15.00;99.90;;;;;;5068778;27;20615;-63
2022/10/10 12:43:44;;;;;;;6.07;3.03;;;15.00;99.90;;;;;;5057659;28;20211;-62
2022/10/10 12:46:22;;;;;;;2.70;2.10;;;15.00;99.90;;;;;;5061206;27;20475;-62
2022/10/10 12:49:12;;;;;;;4.20;2.60;;;15.10;99.90;;;;;;5032351;27;22218;-62
2022/10/10 12:51:40;;;;;;;8.07;2.67;;;15.00;99.90;;;;;;5074829;27;20967;-62
2022/10/10 12:54:07;;;;;;;7.38;2.95;;;15.10;99.90;;;;;;5067236;28;21183;-62
2022/10/10 12:56:41;;;;;;;9.48;2.85;;;15.10;99.90;;;;;;5065741;27;20203;-62
2022/10/10 12:59:19;;;;;;;5.43;2.55;;;15.10;99.90;;;;;;5069175;28;20223;-62
2022/10/10 13:01:52;;;;;;;5.57;2.88;;;15.10;99.90;;;;;;5062849;28;20345;-62
2022/10/10 13:04:20;;;;;;;11.77;2.75;;;15.00;99.90;;;;;;5061645;28;20200;-62
2022/10/10 13:06:52;;;;;;;7.80;3.00;;;15.00;99.90;;;;;;5076462;28;20227;-62
2022/10/10 13:09:21;;;;;;;6.15;3.08;;;15.00;99.90;;;;;;5050382;27;20208;-62